createdAt,value
2019-02-25T00:14:19.745Z,89.55
2019-02-25T00:16:49.046Z,89.07
2019-02-25T00:19:18.024Z,94.77
2019-02-25T00:21:47.115Z,88.30
2019-02-25T00:24:16.270Z,90.62
2019-02-25T00:26:45.416Z,96.63
2019-02-25T00:29:14.501Z,90.70
2019-02-25T00:31:43.648Z,103.58
2019-02-25T00:34:12.801Z,94.70
2019-02-25T00:36:41.615Z,95.45
2019-02-25T00:39:11.111Z,81.87
2019-02-25T00:41:40.208Z,67.50
2019-02-25T00:44:09.179Z,77.45
2019-02-25T00:46:38.488Z,70.22
2019-02-25T00:49:07.609Z,74.50
2019-02-25T00:51:36.689Z,79.37
2019-02-25T00:54:05.831Z,63.58
2019-02-25T00:56:34.926Z,64.72
2019-02-25T00:59:04.036Z,56.23
2019-02-25T01:01:33.534Z,60.33
2019-02-25T01:04:02.573Z,45.20
2019-02-25T01:06:32.118Z,38.25
2019-02-25T01:09:01.379Z,43.90
2019-02-25T01:11:30.479Z,37.67
2019-02-25T01:13:59.555Z,31.95
2019-02-25T01:16:28.692Z,130.50
2019-02-25T01:18:57.756Z,101.53
2019-02-25T01:21:26.760Z,152.62
2019-02-25T01:23:56.141Z,112.50
2019-02-25T01:26:25.246Z,46.00
2019-02-25T01:28:54.654Z,44.53
2019-02-25T01:31:23.973Z,30.27
2019-02-25T01:33:53.675Z,33.30
2019-02-25T01:36:22.674Z,38.30
2019-02-25T01:38:52.451Z,41.18
2019-02-25T01:41:21.584Z,45.28
2019-02-25T01:43:50.712Z,40.63
2019-02-25T01:46:19.651Z,38.95
2019-02-25T01:48:48.748Z,39.13
2019-02-25T01:51:17.812Z,44.88
2019-02-25T01:53:46.854Z,35.63
2019-02-25T01:56:15.965Z,33.83
2019-02-25T01:58:45.372Z,26.10
2019-02-25T02:01:14.677Z,25.08
2019-02-25T02:03:43.852Z,25.32
2019-02-25T02:06:12.945Z,36.83
2019-02-25T02:08:42.139Z,36.73
2019-02-25T02:11:11.121Z,41.70
2019-02-25T02:13:40.327Z,43.50
2019-02-25T02:16:09.461Z,46.23
2019-02-25T02:18:38.535Z,60.00
2019-02-25T02:21:07.624Z,58.50
2019-02-25T02:23:36.947Z,67.92
2019-02-25T02:26:06.066Z,66.92
2019-02-25T02:28:35.207Z,52.85
2019-02-25T02:31:05.103Z,52.45
2019-02-25T02:33:34.216Z,52.85
2019-02-25T02:36:03.331Z,55.48
2019-02-25T02:38:32.500Z,48.87
2019-02-25T02:41:01.603Z,48.45
2019-02-25T02:43:30.698Z,42.55
2019-02-25T02:46:07.761Z,44.30
2019-02-25T02:48:44.492Z,42.48
2019-02-25T02:51:14.166Z,41.33
2019-02-25T02:53:43.276Z,43.48
2019-02-25T02:56:12.446Z,36.95
2019-02-25T02:58:41.620Z,41.92
2019-02-25T03:01:10.699Z,36.45
2019-02-25T03:03:39.763Z,38.23
2019-02-25T03:06:09.054Z,43.55
2019-02-25T03:08:38.049Z,35.95
2019-02-25T03:11:07.364Z,36.65
2019-02-25T03:13:36.553Z,31.33
2019-02-25T03:16:05.673Z,31.90
2019-02-25T03:18:34.714Z,29.98
2019-02-25T03:21:03.837Z,31.68
2019-02-25T03:23:33.031Z,32.25
2019-02-25T03:26:02.226Z,38.02
2019-02-25T03:28:31.363Z,37.98
2019-02-25T03:31:00.445Z,34.75
2019-02-25T03:33:29.518Z,33.58
2019-02-25T03:35:58.648Z,47.50
2019-02-25T03:38:27.595Z,41.33
2019-02-25T03:40:57.312Z,36.88
2019-02-25T03:43:26.477Z,48.95
2019-02-25T03:45:55.530Z,49.77
2019-02-25T03:48:27.461Z,57.50
2019-02-25T03:50:57.260Z,61.50
2019-02-25T03:53:26.302Z,55.15
2019-02-25T03:55:56.017Z,48.90
2019-02-25T03:58:25.066Z,54.45
2019-02-25T04:00:54.261Z,65.15
2019-02-25T04:03:23.453Z,54.60
2019-02-25T04:05:52.643Z,60.90
2019-02-25T04:08:21.675Z,62.38
2019-02-25T04:10:50.710Z,51.50
2019-02-25T04:13:19.720Z,60.10
2019-02-25T04:15:48.810Z,63.75
2019-02-25T04:18:18.517Z,61.05
2019-02-25T04:20:47.683Z,57.80
2019-02-25T04:23:16.719Z,56.13
2019-02-25T04:25:45.818Z,51.25
2019-02-25T04:28:14.855Z,43.33
2019-02-25T04:30:45.075Z,36.95
2019-02-25T04:33:14.064Z,40.10
2019-02-25T04:35:43.170Z,32.00
2019-02-25T04:38:12.232Z,37.50
2019-02-25T04:40:41.288Z,30.12
2019-02-25T04:43:10.376Z,26.25
2019-02-25T04:45:39.503Z,30.10
2019-02-25T04:48:08.662Z,24.55
2019-02-25T04:50:37.647Z,21.62
2019-02-25T04:53:06.805Z,25.02
2019-02-25T04:55:35.727Z,16.30
2019-02-25T04:58:04.739Z,23.05
2019-02-25T05:00:34.048Z,19.67
2019-02-25T05:03:09.417Z,19.82
2019-02-25T05:05:38.511Z,18.37
2019-02-25T05:08:07.559Z,22.20
2019-02-25T05:10:36.725Z,26.73
2019-02-25T05:13:06.036Z,32.58
2019-02-25T05:15:35.428Z,26.40
2019-02-25T05:18:04.529Z,26.00
2019-02-25T05:20:33.696Z,29.67
2019-02-25T05:23:02.654Z,36.17
2019-02-25T05:25:31.703Z,36.65
2019-02-25T05:28:00.949Z,32.03
2019-02-25T05:30:29.767Z,37.65
2019-02-25T05:32:59.137Z,36.70
2019-02-25T05:35:28.175Z,41.65
2019-02-25T05:37:57.252Z,40.23
2019-02-25T05:40:26.532Z,34.78
2019-02-25T05:42:55.663Z,37.13
2019-02-25T05:45:24.739Z,43.20
2019-02-25T05:47:53.671Z,42.70
2019-02-25T05:50:22.942Z,43.95
2019-02-25T05:52:52.015Z,55.65
2019-02-25T05:55:21.177Z,66.70
2019-02-25T05:57:50.311Z,51.85
2019-02-25T06:00:21.451Z,81.87
2019-02-25T06:02:50.652Z,93.67
2019-02-25T06:05:19.921Z,88.10
2019-02-25T06:07:49.040Z,69.82
2019-02-25T06:10:18.160Z,82.82
2019-02-25T06:12:47.310Z,69.17
2019-02-25T06:15:16.563Z,66.65
2019-02-25T06:17:45.541Z,63.13
2019-02-25T06:20:15.072Z,65.30
2019-02-25T06:22:44.301Z,61.23
2019-02-25T06:25:13.813Z,54.30
2019-02-25T06:27:42.996Z,63.30
2019-02-25T06:30:14.664Z,66.05
2019-02-25T06:32:44.125Z,63.08
2019-02-25T06:35:13.858Z,61.55
2019-02-25T06:37:42.919Z,66.72
2019-02-25T06:40:15.650Z,63.00
2019-02-25T06:42:42.432Z,62.25
2019-02-25T06:45:12.890Z,69.20
2019-02-25T06:47:41.936Z,60.30
2019-02-25T06:50:11.948Z,58.23
2019-02-25T06:52:41.108Z,57.20
2019-02-25T06:55:12.012Z,49.45
2019-02-25T06:57:41.127Z,54.83
2019-02-25T07:00:12.894Z,49.40
2019-02-25T07:02:41.986Z,48.23
2019-02-25T07:05:21.192Z,64.97
2019-02-25T07:07:54.919Z,72.00
2019-02-25T07:10:29.295Z,57.75
2019-02-25T07:13:03.459Z,55.40
2019-02-25T07:16:36.304Z,46.77
2019-02-25T07:19:10.560Z,42.73
2019-02-25T07:22:43.475Z,44.08
2019-02-25T07:25:17.695Z,36.00
2019-02-25T07:29:54.579Z,39.92
2019-02-25T07:33:29.452Z,39.60
2019-02-25T07:36:18.875Z,43.85
2019-02-25T07:40:58.543Z,45.60
2019-02-25T07:43:36.573Z,40.23
2019-02-25T07:46:17.604Z,34.63
2019-02-25T07:48:53.719Z,31.48
2019-02-25T07:51:32.795Z,35.78
2019-02-25T07:54:07.853Z,40.67
2019-02-25T07:56:42.815Z,40.58
2019-02-25T07:59:16.039Z,48.48
2019-02-25T08:01:49.285Z,36.00
2019-02-25T08:04:25.435Z,33.38
2019-02-25T08:07:34.019Z,35.58
2019-02-25T08:10:06.975Z,35.28
2019-02-25T08:12:41.210Z,34.00
2019-02-25T08:15:17.492Z,37.75
2019-02-25T08:17:51.804Z,36.08
2019-02-25T08:21:27.622Z,31.85
2019-02-25T08:24:32.880Z,36.48
2019-02-25T08:27:07.377Z,35.17
2019-02-25T08:29:41.718Z,39.83
2019-02-25T08:32:36.181Z,37.63
2019-02-25T08:35:12.808Z,29.35
2019-02-25T08:38:05.357Z,37.08
2019-02-25T08:40:46.053Z,39.70
2019-02-25T08:43:20.135Z,37.73
2019-02-25T08:45:56.296Z,23.38
2019-02-25T08:48:59.882Z,33.35
2019-02-25T08:51:29.044Z,24.05
2019-02-25T08:53:58.175Z,26.45
2019-02-25T08:56:27.360Z,25.02
2019-02-25T08:58:56.435Z,31.87
2019-02-25T09:01:25.540Z,31.70
2019-02-25T09:03:54.817Z,23.22
2019-02-25T09:06:23.941Z,24.85
2019-02-25T09:08:53.067Z,28.50
2019-02-25T09:11:22.420Z,22.90
2019-02-25T09:13:51.498Z,23.87
2019-02-25T09:16:20.603Z,23.52
2019-02-25T09:18:49.733Z,19.15
2019-02-25T09:21:18.763Z,12.63
2019-02-25T09:23:48.561Z,13.98
2019-02-25T09:26:17.884Z,14.10
2019-02-25T09:28:46.989Z,15.88
2019-02-25T09:31:15.996Z,14.30
2019-02-25T09:33:45.312Z,17.57
2019-02-25T09:36:14.512Z,16.90
2019-02-25T09:38:44.178Z,12.28
2019-02-25T09:41:13.331Z,12.47
2019-02-25T09:43:42.402Z,13.30
2019-02-25T09:46:11.498Z,9.55
2019-02-25T09:48:40.710Z,10.65
2019-02-25T09:51:11.258Z,10.68
2019-02-25T09:53:38.989Z,12.18
2019-02-25T09:56:08.270Z,11.43
2019-02-25T09:58:38.007Z,12.18
2019-02-25T10:01:07.288Z,12.00
2019-02-25T10:03:36.422Z,17.60
2019-02-25T10:06:06.038Z,40.20
2019-02-25T10:08:35.087Z,16.17
2019-02-25T10:11:04.410Z,14.47
2019-02-25T10:13:33.532Z,16.95
2019-02-25T10:16:03.278Z,13.40
2019-02-25T10:18:32.719Z,16.17
2019-02-25T10:21:01.998Z,14.18
2019-02-25T10:23:31.141Z,14.98
2019-02-25T10:26:00.235Z,15.70
2019-02-25T10:28:29.897Z,17.42
2019-02-25T10:30:59.027Z,15.72
2019-02-25T10:33:28.329Z,17.85
2019-02-25T10:35:57.400Z,12.73
2019-02-25T10:38:26.498Z,13.98
2019-02-25T10:40:55.702Z,16.27
2019-02-25T10:43:26.094Z,18.50
2019-02-25T10:45:54.659Z,14.13
2019-02-25T10:48:25.749Z,17.98
2019-02-25T10:50:56.022Z,19.00
2019-02-25T10:53:22.181Z,14.05
2019-02-25T10:55:58.269Z,20.55
2019-02-25T10:58:29.011Z,15.78
2019-02-25T11:00:56.556Z,15.55
2019-02-25T11:03:25.815Z,17.35
2019-02-25T11:05:56.367Z,17.02
2019-02-25T11:08:24.524Z,14.35
2019-02-25T11:10:58.675Z,13.08
2019-02-25T11:13:29.696Z,14.20
2019-02-25T11:15:57.552Z,16.07
2019-02-25T11:18:28.328Z,13.88
2019-02-25T11:20:56.018Z,13.90
2019-02-25T11:23:25.088Z,16.05
2019-02-25T11:25:56.274Z,14.50
2019-02-25T11:28:26.124Z,15.78
2019-02-25T11:30:53.799Z,15.15
2019-02-25T11:33:23.223Z,15.70
2019-02-25T11:35:51.177Z,15.95
2019-02-25T11:38:20.279Z,14.55
2019-02-25T11:40:49.403Z,20.50
2019-02-25T11:43:19.471Z,15.20
2019-02-25T11:45:47.658Z,17.30
2019-02-25T11:48:16.940Z,16.05
2019-02-25T11:50:46.043Z,12.05
2019-02-25T11:53:15.407Z,15.43
2019-02-25T11:55:44.512Z,11.68
2019-02-25T11:58:13.567Z,14.50
2019-02-25T12:00:42.661Z,12.53
2019-02-25T12:03:11.764Z,15.80
2019-02-25T12:05:40.841Z,12.73
2019-02-25T12:08:09.917Z,13.18
2019-02-25T12:10:39.179Z,12.68
2019-02-25T12:13:08.415Z,12.75
2019-02-25T12:15:37.546Z,11.63
2019-02-25T12:18:06.762Z,14.30
2019-02-25T12:20:36.027Z,14.30
2019-02-25T12:23:05.557Z,15.00
2019-02-25T12:25:35.416Z,13.98
2019-02-25T12:28:04.527Z,12.58
2019-02-25T12:30:33.780Z,12.60
2019-02-25T12:33:02.866Z,13.50
2019-02-25T12:35:32.031Z,14.00
2019-02-25T12:38:00.929Z,14.85
2019-02-25T12:40:30.052Z,19.02
2019-02-25T12:42:59.220Z,10.23
2019-02-25T12:45:28.364Z,11.18
2019-02-25T12:47:57.443Z,12.10
2019-02-25T12:50:26.393Z,15.28
2019-02-25T12:52:55.498Z,10.88
2019-02-25T12:55:25.219Z,13.50
2019-02-25T12:57:54.343Z,13.88
2019-02-25T13:00:23.408Z,12.43
2019-02-25T13:02:52.561Z,12.60
2019-02-25T13:05:21.708Z,12.98
2019-02-25T13:07:50.829Z,18.70
2019-02-25T13:10:20.768Z,14.60
2019-02-25T13:12:51.536Z,13.10
2019-02-25T13:15:19.039Z,12.37
2019-02-25T13:17:48.155Z,15.10
2019-02-25T13:20:17.239Z,14.28
2019-02-25T13:22:46.202Z,11.88
2019-02-25T13:25:15.344Z,13.38
2019-02-25T13:27:44.383Z,13.48
2019-02-25T13:30:14.769Z,11.65
2019-02-25T13:32:44.001Z,12.37
2019-02-25T13:35:13.548Z,12.18
2019-02-25T13:37:42.706Z,13.25
2019-02-25T13:40:12.313Z,11.63
2019-02-25T13:42:41.437Z,10.05
2019-02-25T13:45:11.306Z,12.88
2019-02-25T13:47:40.482Z,10.93
2019-02-25T13:50:10.862Z,11.25
2019-02-25T13:52:47.869Z,12.75
2019-02-25T13:55:09.767Z,10.55
2019-02-25T13:57:38.916Z,13.93
2019-02-25T14:00:13.672Z,12.63
2019-02-25T14:02:42.881Z,12.68
2019-02-25T14:05:12.001Z,11.07
2019-02-25T14:07:41.081Z,16.60
2019-02-25T14:10:10.955Z,11.33
2019-02-25T14:12:40.212Z,11.70
2019-02-25T14:15:09.719Z,8.68
2019-02-25T14:17:38.872Z,10.80
2019-02-25T14:20:11.176Z,10.35
2019-02-25T14:22:40.332Z,11.05
2019-02-25T14:25:12.454Z,12.07
2019-02-25T14:27:40.351Z,6.72
2019-02-25T14:30:13.012Z,8.28
2019-02-25T14:32:42.225Z,10.70
2019-02-25T14:35:11.300Z,10.23
2019-02-25T14:37:40.395Z,9.90
2019-02-25T14:40:14.460Z,11.83
2019-02-25T14:42:42.593Z,10.68
2019-02-25T14:45:10.115Z,10.55
2019-02-25T14:47:40.071Z,11.45
2019-02-25T14:50:11.001Z,12.73
2019-02-25T14:52:40.123Z,11.68
2019-02-25T14:55:10.997Z,12.30
2019-02-25T14:57:40.728Z,12.70
2019-02-25T15:00:09.903Z,16.10
2019-02-25T15:02:39.499Z,19.10
2019-02-25T15:05:08.727Z,15.20
2019-02-25T15:07:38.008Z,12.98
2019-02-25T15:10:09.177Z,12.70
2019-02-25T15:12:38.354Z,14.05
2019-02-25T15:15:08.841Z,11.15
2019-02-25T15:17:37.411Z,17.87
2019-02-25T15:20:06.692Z,13.40
2019-02-25T15:22:36.291Z,13.30
2019-02-25T15:25:05.355Z,13.15
2019-02-25T15:27:34.588Z,14.93
2019-02-25T15:30:03.778Z,16.10
2019-02-25T15:32:33.558Z,11.30
2019-02-25T15:35:01.742Z,14.93
2019-02-25T15:37:30.974Z,15.45
2019-02-25T15:39:59.953Z,15.10
2019-02-25T15:42:30.097Z,15.65
2019-02-25T15:44:58.315Z,15.45
2019-02-25T15:47:28.104Z,12.85
2019-02-25T15:49:59.720Z,13.75
2019-02-25T15:52:27.746Z,12.78
2019-02-25T15:54:55.507Z,14.55
2019-02-25T15:57:26.296Z,14.13
2019-02-25T15:59:53.791Z,16.45
2019-02-25T16:02:22.885Z,15.80
2019-02-25T16:04:53.932Z,16.70
2019-02-25T16:07:23.866Z,16.73
2019-02-25T16:09:50.545Z,13.32
2019-02-25T16:12:23.212Z,18.45
2019-02-25T16:14:51.000Z,19.82
2019-02-25T16:17:19.084Z,19.12
2019-02-25T16:19:53.142Z,14.20
2019-02-25T16:22:18.400Z,18.55
2019-02-25T16:24:47.242Z,17.37
2019-02-25T16:27:18.669Z,24.20
2019-02-25T16:29:46.112Z,19.27
2019-02-25T16:32:16.895Z,20.35
2019-02-25T16:34:44.448Z,15.85
2019-02-25T16:37:13.512Z,15.88
2019-02-25T16:39:42.587Z,22.55
2019-02-25T16:42:11.882Z,18.75
2019-02-25T16:44:41.480Z,15.20
2019-02-25T16:47:11.819Z,23.15
2019-02-25T16:49:39.839Z,18.60
2019-02-25T16:52:09.008Z,25.35
2019-02-25T16:54:38.039Z,18.70
2019-02-25T16:57:07.345Z,23.55
2019-02-25T16:59:36.311Z,23.62
2019-02-25T17:02:07.136Z,24.67
2019-02-25T17:04:34.672Z,26.37
2019-02-25T17:07:03.876Z,45.00
2019-02-25T17:09:34.148Z,36.30
2019-02-25T17:12:02.883Z,24.50
2019-02-25T17:14:31.363Z,25.60
2019-02-25T17:17:00.363Z,29.42
2019-02-25T17:19:29.553Z,32.30
2019-02-25T17:21:58.587Z,44.30
2019-02-25T17:24:30.021Z,249.22
2019-02-25T17:26:57.387Z,38.13
2019-02-25T17:29:26.541Z,50.48
2019-02-25T17:31:57.525Z,208.35
2019-02-25T17:34:24.947Z,41.18
2019-02-25T17:36:54.597Z,35.52
2019-02-25T17:39:22.968Z,48.33
2019-02-25T17:41:52.540Z,44.05
2019-02-25T17:44:24.235Z,30.82
2019-02-25T17:46:50.667Z,25.70
2019-02-25T17:49:19.960Z,29.60
2019-02-25T17:51:49.613Z,31.30
2019-02-25T17:54:18.598Z,30.55
2019-02-25T17:56:49.232Z,30.32
2019-02-25T17:59:16.876Z,32.48
2019-02-25T18:01:46.816Z,34.23
2019-02-25T18:04:15.487Z,59.63
2019-02-25T18:06:44.551Z,73.47
2019-02-25T18:09:15.915Z,105.07
2019-02-25T18:11:43.781Z,117.82
2019-02-25T18:14:13.317Z,161.73
2019-02-25T18:16:43.640Z,211.65
2019-02-25T18:19:11.712Z,197.13
2019-02-25T18:21:43.046Z,220.27
2019-02-25T18:24:09.989Z,381.25
2019-02-25T18:26:38.669Z,281.63
2019-02-25T18:29:09.400Z,248.25
2019-02-25T18:31:37.173Z,224.12
2019-02-25T18:34:06.967Z,239.10
2019-02-25T18:36:35.563Z,223.80
2019-02-25T18:39:06.263Z,230.25
2019-02-25T18:41:35.600Z,245.48
2019-02-25T18:44:05.307Z,252.87
2019-02-25T18:46:34.164Z,248.20
2019-02-25T18:49:05.113Z,239.45
2019-02-25T18:51:35.039Z,252.90
2019-02-25T18:54:03.718Z,256.90
2019-02-25T18:56:31.392Z,232.92
2019-02-25T18:59:08.230Z,240.10
2019-02-25T19:01:29.521Z,233.45
2019-02-25T19:03:59.053Z,245.17
2019-02-25T19:06:29.255Z,262.00
2019-02-25T19:08:58.288Z,284.32
2019-02-25T19:11:28.111Z,288.82
2019-02-25T19:13:56.734Z,277.95
2019-02-25T19:16:25.380Z,259.00
2019-02-25T19:18:54.420Z,276.20
2019-02-25T19:21:25.325Z,267.70
2019-02-25T19:23:52.784Z,252.53
2019-02-25T19:26:22.249Z,375.38
2019-02-25T19:28:52.470Z,227.80
2019-02-25T19:31:20.584Z,187.80
2019-02-25T19:33:49.639Z,150.35
2019-02-25T19:36:19.217Z,151.68
2019-02-25T19:38:48.641Z,169.97
2019-02-25T19:41:17.754Z,150.00
2019-02-25T19:43:46.451Z,150.78
2019-02-25T19:46:15.753Z,147.87
2019-02-25T19:48:47.006Z,149.75
2019-02-25T19:51:14.275Z,155.20
2019-02-25T19:53:45.155Z,134.80
2019-02-25T19:56:12.975Z,132.35
2019-02-25T19:58:42.071Z,126.00
2019-02-25T20:01:11.353Z,115.28
2019-02-25T20:03:42.792Z,93.00
2019-02-25T20:06:13.862Z,100.45
2019-02-25T20:08:39.663Z,96.92
2019-02-25T20:11:09.731Z,95.83
2019-02-25T20:13:38.018Z,90.75
2019-02-25T20:16:08.135Z,93.03
2019-02-25T20:18:37.717Z,87.40
2019-02-25T20:21:08.042Z,86.82
2019-02-25T20:23:34.940Z,92.00
2019-02-25T20:26:04.166Z,88.65
2019-02-25T20:28:33.300Z,75.60
2019-02-25T20:31:02.585Z,76.50
2019-02-25T20:33:33.026Z,71.75
2019-02-25T20:36:03.027Z,79.37
2019-02-25T20:38:32.619Z,75.47
2019-02-25T20:41:00.553Z,78.57
2019-02-25T20:43:30.809Z,105.40
2019-02-25T20:45:59.325Z,75.67
2019-02-25T20:48:27.684Z,71.10
2019-02-25T20:50:59.652Z,75.12
2019-02-25T20:53:27.428Z,72.80
2019-02-25T20:55:56.723Z,77.85
2019-02-25T20:58:25.007Z,76.25
2019-02-25T21:00:54.067Z,68.95
2019-02-25T21:03:25.264Z,59.67
2019-02-25T21:05:52.317Z,63.80
2019-02-25T21:08:23.521Z,51.65
2019-02-25T21:10:51.678Z,45.73
2019-02-25T21:13:22.063Z,47.58
2019-02-25T21:15:49.591Z,44.40
2019-02-25T21:18:20.245Z,57.85
2019-02-25T21:20:49.390Z,46.55
2019-02-25T21:23:17.058Z,36.20
2019-02-25T21:25:46.257Z,33.83
2019-02-25T21:28:15.456Z,31.07
2019-02-25T21:30:46.042Z,38.10
2019-02-25T21:33:17.382Z,30.88
2019-02-25T21:35:42.786Z,29.80
2019-02-25T21:38:11.871Z,32.75
2019-02-25T21:40:41.016Z,31.97
2019-02-25T21:43:14.430Z,29.02
2019-02-25T21:45:39.263Z,31.00
2019-02-25T21:48:08.573Z,29.30
2019-02-25T21:50:38.336Z,43.68
2019-02-25T21:53:07.594Z,38.00
2019-02-25T21:55:36.262Z,33.75
2019-02-25T21:58:05.373Z,35.17
2019-02-25T22:00:37.383Z,29.40
2019-02-25T22:03:06.013Z,29.27
2019-02-25T22:05:33.247Z,24.05
2019-02-25T22:08:04.175Z,25.35
2019-02-25T22:10:34.167Z,25.20
2019-02-25T22:13:04.404Z,23.40
2019-02-25T22:15:29.838Z,27.32
2019-02-25T22:17:58.979Z,39.00
2019-02-25T22:20:28.019Z,44.45
2019-02-25T22:22:59.232Z,27.37
2019-02-25T22:25:26.548Z,28.57
2019-02-25T22:27:56.196Z,24.80
2019-02-25T22:30:25.091Z,26.35
2019-02-25T22:32:54.860Z,31.00
2019-02-25T22:35:23.730Z,32.63
2019-02-25T22:37:55.298Z,32.03
2019-02-25T22:40:21.763Z,28.95
2019-02-25T22:42:52.224Z,32.15
2019-02-25T22:45:19.861Z,25.00
2019-02-25T22:47:48.959Z,30.68
2019-02-25T22:50:18.012Z,24.35
2019-02-25T22:52:51.228Z,25.32
2019-02-25T22:55:18.364Z,25.88
2019-02-25T22:57:46.112Z,29.18
2019-02-25T23:00:27.859Z,28.42
2019-02-25T23:02:57.086Z,27.70
2019-02-25T23:05:26.349Z,27.07
2019-02-25T23:07:55.445Z,22.62
2019-02-25T23:10:25.552Z,23.90
2019-02-25T23:12:54.819Z,22.75
2019-02-25T23:15:26.955Z,22.60
2019-02-25T23:17:53.107Z,25.17
2019-02-25T23:20:23.040Z,24.60
2019-02-25T23:22:52.912Z,21.80
2019-02-25T23:25:20.534Z,19.70
2019-02-25T23:27:51.661Z,24.35
2019-02-25T23:30:18.787Z,22.02
2019-02-25T23:32:47.874Z,31.07
2019-02-25T23:35:18.475Z,24.65
2019-02-25T23:37:49.037Z,20.08
2019-02-25T23:40:16.783Z,26.33
2019-02-25T23:42:46.499Z,24.15
2019-02-25T23:45:15.180Z,24.37
2019-02-25T23:47:42.678Z,21.07
2019-02-25T23:50:13.712Z,20.45
2019-02-25T23:52:41.908Z,24.98
2019-02-25T23:55:14.304Z,51.85
2019-02-25T23:57:41.286Z,39.10
